Terminal Aerodrome Forecast
Issued by NWS

Home | Current Version | Previous Version | Text Only | Print | Product List | Glossary On
Versions: 1 2 3 4 5 6 7 8 9 10 11 12 13 14 15 16 17 18 19 20 21 22 23 24 25 26 27 28 29 30 31 32 33 34 35 36
000
FTUS41 KBOX 152324
TAFBED
TAF
KBED 152324Z 1600/1624 21012G22KT P6SM SCT120
     FM160700 22010KT P6SM VCSH OVC070
     FM161400 21008KT P6SM -RA OVC030
     FM161600 20008KT 5SM -RA BR OVC010
     FM161800 18008KT 2SM -RA BR OVC008
     FM162300 18008KT P6SM VCSH OVC008=

USA.gov is the U.S. government's official web portal to all federal, state and local government web resources and services.